createdAt,value
2023-03-06T06:02:57.226Z,100692.59
2023-03-06T06:05:34.149Z,100692.81
2023-03-06T06:08:04.142Z,100691.13
2023-03-06T06:10:41.224Z,100687.00
2023-03-06T06:13:18.147Z,100683.75
2023-03-06T06:15:48.210Z,100686.53
2023-03-06T06:18:28.233Z,100699.94
2023-03-06T06:21:05.173Z,100691.16
2023-03-06T06:23:35.376Z,100696.44
2023-03-06T06:26:14.213Z,100692.22
2023-03-06T06:28:44.430Z,100694.88
2023-03-06T06:31:23.199Z,100691.28
2023-03-06T06:33:56.002Z,100695.69
2023-03-06T06:36:33.185Z,100697.50
2023-03-06T06:39:10.186Z,100701.09
2023-03-06T06:41:55.280Z,100700.16
2023-03-06T06:44:36.188Z,100707.84
2023-03-06T06:47:23.001Z,100706.91
2023-03-06T06:49:59.011Z,100705.94
2023-03-06T06:52:36.244Z,100706.56
2023-03-06T06:55:06.539Z,100708.13
2023-03-06T06:57:43.246Z,100704.31
2023-03-06T07:00:24.232Z,100715.47
2023-03-06T07:02:54.389Z,100712.53
2023-03-06T07:05:33.522Z,100712.19
2023-03-06T07:08:10.271Z,100713.53
2023-03-06T07:10:43.487Z,100713.16
2023-03-06T07:13:20.363Z,100720.75
2023-03-06T07:15:57.297Z,100723.75
2023-03-06T07:18:27.501Z,100722.72
2023-03-06T07:21:07.300Z,100722.38
2023-03-06T07:23:44.243Z,100716.00
2023-03-06T07:26:14.440Z,100715.91
2023-03-06T07:28:52.943Z,100725.16
2023-03-06T07:31:31.383Z,100721.09
2023-03-06T07:34:04.445Z,100724.00
2023-03-06T07:36:47.301Z,100718.06
2023-03-06T07:39:24.326Z,100715.47
2023-03-06T07:41:54.610Z,100716.78
2023-03-06T07:44:31.331Z,100716.94
2023-03-06T07:47:01.348Z,100711.53
2023-03-06T07:49:38.314Z,100715.97
2023-03-06T07:52:10.982Z,100711.16
2023-03-06T07:54:47.350Z,100714.06
2023-03-06T07:57:17.343Z,100706.34
2023-03-06T07:59:54.367Z,100712.13
2023-03-06T08:02:24.516Z,100709.22
2023-03-06T08:05:04.296Z,100711.84
2023-03-06T08:07:44.316Z,100705.53
2023-03-06T08:10:18.308Z,100715.72
2023-03-06T08:12:54.382Z,100705.78
2023-03-06T08:15:24.422Z,100706.88
2023-03-06T08:18:01.346Z,100701.06
2023-03-06T08:20:38.324Z,100696.06
2023-03-06T08:23:12.001Z,100706.22
2023-03-06T08:25:48.394Z,100698.91
2023-03-06T08:28:25.344Z,100699.28
2023-03-06T08:30:55.406Z,100695.84
2023-03-06T08:33:34.395Z,100690.56
2023-03-06T08:36:04.453Z,100701.25
2023-03-06T08:38:43.446Z,100698.41
2023-03-06T08:41:20.480Z,100693.97
2023-03-06T08:43:50.917Z,100700.09
2023-03-06T08:46:30.343Z,100696.25
2023-03-06T08:49:07.371Z,100694.03
2023-03-06T08:51:37.443Z,100695.00
2023-03-06T08:54:16.378Z,100695.88
2023-03-06T08:56:46.443Z,100693.03
2023-03-06T08:59:23.367Z,100688.22
2023-03-06T09:02:00.483Z,100682.41
2023-03-06T09:04:33.812Z,100690.28
2023-03-06T09:07:10.376Z,100689.31
2023-03-06T09:09:43.036Z,100684.34
2023-03-06T09:12:19.401Z,100674.00
2023-03-06T09:14:49.436Z,100671.69
2023-03-06T09:17:26.450Z,100669.38
2023-03-06T09:19:56.598Z,100669.72
2023-03-06T09:22:33.404Z,100667.59
2023-03-06T09:25:06.945Z,100665.84
2023-03-06T09:27:43.461Z,100677.34
2023-03-06T09:30:22.516Z,100675.66
2023-03-06T09:32:52.563Z,100674.75
2023-03-06T09:35:29.532Z,100683.00
2023-03-06T09:38:06.437Z,100685.19
2023-03-06T09:40:51.678Z,100688.31
2023-03-06T09:43:34.463Z,100684.94
2023-03-06T09:46:09.508Z,100686.38
2023-03-06T09:48:56.440Z,100684.38
2023-03-06T09:51:34.243Z,100696.22
2023-03-06T09:54:19.484Z,100692.44
2023-03-06T09:56:53.422Z,100693.13
2023-03-06T09:59:33.456Z,100687.88
2023-03-06T10:02:15.593Z,100691.47
2023-03-06T10:04:58.510Z,100694.38
2023-03-06T10:07:43.690Z,100694.38
2023-03-06T10:10:30.506Z,100694.88
2023-03-06T10:13:09.258Z,100693.72
2023-03-06T10:15:50.613Z,100677.28
2023-03-06T10:18:20.926Z,100672.25
2023-03-06T10:21:18.478Z,100677.28
2023-03-06T10:23:56.769Z,100670.91
2023-03-06T10:26:36.597Z,100661.56
2023-03-06T10:30:00.109Z,100666.09
2023-03-06T10:32:49.772Z,100664.97
2023-03-06T10:35:25.705Z,100667.19
2023-03-06T10:38:28.519Z,100666.13
2023-03-06T10:41:25.567Z,100664.03
2023-03-06T10:44:24.154Z,100667.75
2023-03-06T10:47:03.555Z,100663.84
2023-03-06T10:49:36.760Z,100664.63
2023-03-06T10:52:29.574Z,100661.94
2023-03-06T10:55:32.592Z,100659.81
2023-03-06T10:58:21.659Z,100663.66
2023-03-06T11:01:13.666Z,100660.84
2023-03-06T11:03:50.584Z,100667.06
2023-03-06T11:06:36.078Z,100662.91
2023-03-06T11:09:25.590Z,100661.91
2023-03-06T11:12:15.980Z,100651.00
2023-03-06T11:14:52.604Z,100658.78
2023-03-06T11:17:34.745Z,100651.13
2023-03-06T11:20:27.788Z,100654.53
2023-03-06T11:23:05.815Z,100647.38
2023-03-06T11:25:46.636Z,100649.22
2023-03-06T11:28:24.587Z,100636.84
2023-03-06T11:31:05.591Z,100645.03
2023-03-06T11:33:46.542Z,100641.13
2023-03-06T11:36:32.566Z,100633.25
2023-03-06T11:39:02.901Z,100632.06
2023-03-06T11:42:00.645Z,100626.03
2023-03-06T11:44:45.359Z,100626.84
2023-03-06T11:47:28.653Z,100624.47
2023-03-06T11:50:19.234Z,100626.00
2023-03-06T11:53:01.724Z,100616.91
2023-03-06T11:55:46.048Z,100614.41
2023-03-06T11:59:00.663Z,100610.41
2023-03-06T12:01:38.356Z,100601.72
2023-03-06T12:04:55.657Z,100599.03
2023-03-06T12:07:39.675Z,100595.28
2023-03-06T12:10:20.255Z,100591.75
2023-03-06T12:13:31.649Z,100586.16
2023-03-06T12:16:25.997Z,100582.38
2023-03-06T12:19:11.678Z,100577.38
2023-03-06T12:21:54.045Z,100577.97
2023-03-06T12:25:05.655Z,100582.00
2023-03-06T12:27:54.656Z,100573.31
2023-03-06T12:30:41.891Z,100568.81
2023-03-06T12:33:30.683Z,100567.97
2023-03-06T12:36:16.921Z,100571.28
2023-03-06T12:39:11.664Z,100560.09
2023-03-06T12:42:08.886Z,100557.34
2023-03-06T12:45:09.762Z,100554.53
2023-03-06T12:47:52.679Z,100550.22
2023-03-06T12:50:27.481Z,100548.84
2023-03-06T12:53:07.731Z,100547.84
2023-03-06T12:55:50.769Z,100538.81
2023-03-06T12:58:54.534Z,100539.75
2023-03-06T13:02:15.822Z,100531.34
2023-03-06T13:05:03.744Z,100524.31
2023-03-06T13:08:00.751Z,100519.78
2023-03-06T13:10:33.683Z,100522.63
2023-03-06T13:13:11.767Z,100517.63
2023-03-06T13:15:47.259Z,100509.59
2023-03-06T13:19:10.765Z,100507.19
2023-03-06T13:22:30.006Z,100496.56
2023-03-06T13:25:43.783Z,100499.47
2023-03-06T13:28:27.889Z,100493.63
2023-03-06T13:31:10.625Z,100483.31
2023-03-06T13:34:00.782Z,100481.31
2023-03-06T13:36:42.732Z,100480.31
2023-03-06T13:39:13.354Z,100469.47
2023-03-06T13:42:08.737Z,100465.75
2023-03-06T13:44:53.799Z,100468.94
2023-03-06T13:48:19.516Z,100470.91
2023-03-06T13:50:52.827Z,100463.56
2023-03-06T13:54:02.875Z,100466.50
2023-03-06T13:57:19.784Z,100460.13
2023-03-06T14:00:27.805Z,100457.91
